Time;durP1;ratioP1;P1;durP2;ratioP2;P2;SDS_P1;SDS_P2;PMS_P1;PMS_P2;Temp;Humidity;BMP_temperature;BMP_pressure;BME280_temperature;BME280_humidity;BME280_pressure;Samples;Min_cycle;Max_cycle;Signal;HPM_P1;HPM_P2
2023/11/21 00:00:38;;;;;;;10.02;4.05;;;;;;;14.44;100.00;97959.44;5956783;24;20035;-95
2023/11/21 00:03:35;;;;;;;8.77;4.05;;;;;;;14.93;100.00;98031.66;5936531;24;20448;-95
2023/11/21 00:06:30;;;;;;;9.98;4.43;;;;;;;15.13;100.00;98056.44;5953314;24;20107;-96
2023/11/21 00:09:09;;;;;;;11.95;4.68;;;;;;;15.56;100.00;98120.94;6018848;23;20127;-95
2023/11/21 00:12:25;;;;;;;10.95;4.38;;;;;;;15.05;100.00;98013.16;6039125;23;20450;-94
2023/11/21 00:15:09;;;;;;;9.63;4.15;;;;;;;14.64;100.00;97946.78;6045945;23;20060;-94
2023/11/21 00:18:19;;;;;;;9.98;4.15;;;;;;;14.67;100.00;97960.88;6020027;23;20068;-94
2023/11/21 00:21:39;;;;;;;10.82;4.20;;;;;;;14.78;100.00;97979.00;6045515;23;20076;-94
2023/11/21 00:32:17;;;;;;;10.38;4.68;;;;;;;14.87;100.00;97948.16;5933045;24;20017;-95
2023/11/21 00:35:20;;;;;;;8.15;3.85;;;;;;;15.36;100.00;98015.78;5796797;24;20410;-95
2023/11/21 00:38:38;;;;;;;11.35;4.97;;;;;;;15.80;100.00;98079.34;5777865;24;20052;-95
2023/11/21 00:41:50;;;;;;;9.77;4.35;;;;;;;14.78;100.00;97918.28;5866244;24;20025;-95
2023/11/21 00:45:03;;;;;;;9.77;4.80;;;;;;;15.78;100.00;98075.88;5883082;24;20030;-94
2023/11/21 00:48:04;;;;;;;12.60;3.38;;;;;;;14.87;100.00;97924.06;5833228;24;20480;-95
2023/11/21 00:51:13;;;;;;;9.30;3.90;;;;;;;14.94;100.00;97925.44;5903600;24;20025;-94
2023/11/21 00:54:10;;;;;;;11.40;4.25;;;;;;;15.12;100.00;97945.78;5914374;24;20037;-95
2023/11/21 01:00:28;;;;;;;7.07;3.25;;;;;;;14.89;100.00;97922.16;5949106;24;20091;-95
2023/11/21 01:03:50;;;;;;;7.03;4.22;;;;;;;14.91;100.00;97925.63;6072903;23;20066;-94
2023/11/21 01:14:23;;;;;;;7.32;3.58;;;;;;;15.88;100.00;98051.22;5986919;23;20076;-95
2023/11/21 01:17:21;;;;;;;7.00;3.45;;;;;;;15.60;100.00;98021.53;5879987;24;20033;-94
2023/11/21 01:20:16;;;;;;;12.55;4.47;;;;;;;15.69;100.00;98008.53;5931290;24;20022;-95
2023/11/21 01:22:56;;;;;;;;;;;;;;;15.96;100.00;98032.81;5908104;24;20114;-95
2023/11/21 01:26:20;;;;;;;9.77;3.25;;;;;;;15.04;100.00;97899.00;5930875;24;19919;-94
2023/11/21 01:40:28;;;;;;;8.63;4.40;;;;;;;15.18;100.00;97913.28;6041515;23;20012;-94
2023/11/21 01:54:14;;;;;;;8.85;3.67;;;;;;;16.17;100.00;98020.78;5844001;24;20054;-95
2023/11/21 01:57:17;;;;;;;11.27;4.20;;;;;;;16.09;100.00;98008.81;5901074;23;20020;-95
2023/11/21 02:00:19;;;;;;;8.05;3.60;;;;;;;15.48;100.00;97923.09;5987870;23;20470;-96
2023/11/21 02:03:04;;;;;;;7.70;3.92;;;;;;;15.05;100.00;97861.44;6014053;23;20090;-96
2023/11/21 02:05:56;;;;;;;11.68;4.00;;;;;;;15.75;100.00;97974.22;5992428;23;20404;-94
2023/11/21 02:08:44;;;;;;;8.68;3.90;;;;;;;15.69;100.00;97958.47;5940330;24;20017;-95
2023/11/21 02:22:15;;;;;;;8.75;4.00;;;;;;;15.50;100.00;97936.41;5876021;24;20014;-93
2023/11/21 02:24:52;;;;;;;8.27;4.00;;;;;;;15.39;100.00;97923.66;5845804;24;20022;-95
2023/11/21 02:30:56;;;;;;;8.20;4.10;;;;;;;15.24;100.00;97879.91;5904017;24;20013;-94
2023/11/21 03:28:51;;;;;;;;;;;;;;;;;;;;;
2023/11/21 03:32:33;;;;;;;5.30;3.35;;;;;;;16.04;100.00;97960.81;5931162;24;20045;-96
2023/11/21 04:58:00;;;;;;;6.50;2.70;;;;;;;15.71;100.00;97932.47;5332760;22;21501853;-94
2023/11/21 05:08:37;;;;;;;;;;;;;;;;;;;;;
2023/11/21 05:17:01;;;;;;;;;;;;;;;;;;;;;
2023/11/21 05:20:28;;;;;;;4.72;2.35;;;;;;;14.87;100.00;97809.81;6078530;23;20110;-95
2023/11/21 05:35:18;;;;;;;7.63;2.53;;;;;;;15.53;100.00;97920.16;6070379;23;20018;-96
2023/11/21 05:46:35;;;;;;;6.38;2.05;;;;;;;14.73;100.00;97750.94;5763962;24;20033;-94
2023/11/21 06:06:35;;;;;;;4.03;1.60;;;;;;;15.14;100.00;97798.41;5718833;24;20019;-94
2023/11/21 06:09:17;;;;;;;4.45;2.08;;;;;;;15.08;100.00;97804.16;5775250;24;20037;-95
2023/11/21 06:34:30;;;;;;;4.57;2.28;;;;;;;15.29;100.00;97836.78;5621932;25;20073;-95
2023/11/21 06:37:21;;;;;;;4.40;2.67;;;;;;;14.94;100.00;97796.94;5594382;25;20219;-94
2023/11/21 06:44:04;;;;;;;5.13;1.67;;;;;;;15.33;100.00;97857.94;5816545;24;20621;-95
2023/11/21 06:47:31;;;;;;;;;;;;;;;;;;;;;
2023/11/21 06:50:18;;;;;;;6.63;2.35;;;;;;;14.97;100.00;97805.66;5849118;24;20025;-94
2023/11/21 06:52:44;;;;;;;5.72;1.85;;;;;;;15.12;100.00;97805.69;5849170;24;20489;-92
2023/11/21 06:55:23;;;;;;;4.78;2.03;;;;;;;14.65;100.00;97737.16;5848673;24;20040;-94
2023/11/21 06:58:05;;;;;;;5.70;1.95;;;;;;;14.70;100.00;97743.94;5874946;24;20039;-94
2023/11/21 07:00:46;;;;;;;6.90;2.15;;;;;;;14.66;100.00;97746.88;5923695;24;20033;-94
2023/11/21 07:03:37;;;;;;;4.13;2.15;;;;;;;14.85;100.00;97776.06;5979761;23;20468;-93
2023/11/21 07:06:12;;;;;;;7.13;2.70;;;;;;;15.11;100.00;97812.84;5985540;23;20028;-93
2023/11/21 07:09:11;;;;;;;5.90;3.17;;;;;;;14.70;100.00;97745.75;5985529;23;20046;-94
2023/11/21 07:12:13;;;;;;;;;;;;;;;;;;;;;
2023/11/21 07:14:48;;;;;;;5.57;2.70;;;;;;;14.48;100.00;97698.00;6070869;23;20389;-95
2023/11/21 07:17:19;;;;;;;5.25;2.38;;;;;;;14.83;100.00;97767.28;6069638;23;20022;-94
2023/11/21 07:19:59;;;;;;;7.32;2.80;;;;;;;14.63;100.00;97726.53;6069955;23;20022;-93
2023/11/21 07:22:59;;;;;;;4.57;2.50;;;;;;;14.69;100.00;97722.63;6070825;23;20105;-94
2023/11/21 07:25:57;;;;;;;;;;;;;;;;;;;;;
2023/11/21 07:31:29;;;;;;;4.63;2.78;;;;;;;15.07;100.00;97781.88;6068565;23;20022;-93
2023/11/21 07:34:26;;;;;;;7.03;3.42;;;;;;;14.62;100.00;97764.94;6070223;23;20021;-92
2023/11/21 07:37:00;;;;;;;7.07;3.00;;;;;;;14.68;100.00;97713.75;6218563;22;20020;-93
2023/11/21 07:39:33;;;;;;;7.07;2.50;;;;;;;14.33;100.00;97713.13;6275542;22;20102;-93
2023/11/21 07:42:09;;;;;;;4.82;2.45;;;;;;;14.70;100.00;97753.78;6275055;22;20015;-94
2023/11/21 07:44:35;;;;;;;4.22;2.15;;;;;;;14.48;100.00;97722.06;6275161;22;20016;-94
2023/11/21 07:47:09;;;;;;;3.60;1.98;;;;;;;14.39;100.00;97715.44;6272841;22;20016;-95
2023/11/21 07:49:49;;;;;;;3.55;2.00;;;;;;;14.61;100.00;97699.00;6275585;22;20028;-94
2023/11/21 07:52:28;;;;;;;8.40;2.42;;;;;;;15.31;100.00;97819.69;6276029;22;20094;-94
2023/11/21 07:55:01;;;;;;;4.40;2.42;;;;;;;15.29;100.00;97802.84;6275082;22;20035;-93
2023/11/21 07:57:33;;;;;;;5.10;3.13;;;;;;;15.13;100.00;97760.03;6275525;22;20356;-94
2023/11/21 08:00:09;;;;;;;4.07;2.15;;;;;;;15.64;100.00;97815.00;6280055;22;20073;-94
2023/11/21 08:02:38;;;;;;;4.03;2.33;;;;;;;15.45;100.00;97780.44;6280116;22;20054;-92
2023/11/21 08:05:11;;;;;;;5.35;2.30;;;;;;;15.73;100.00;97814.44;6280313;22;20041;-94
2023/11/21 08:07:39;;;;;;;6.20;2.28;;;;;;;15.22;100.00;97731.84;6280534;22;20042;-93
2023/11/21 08:10:10;;;;;;;3.28;2.05;;;;;;;15.92;100.00;97843.63;6279975;22;20088;-95
2023/11/21 08:12:38;;;;;;;5.50;2.15;;;;;;;15.23;100.00;97719.31;6279977;22;20027;-92
2023/11/21 08:15:19;;;;;;;9.40;2.25;;;;;;;15.74;100.00;97779.50;6278221;22;20068;-92
2023/11/21 08:17:46;;;;;;;3.72;2.22;;;;;;;15.51;100.00;97737.19;6280227;22;20019;-93
2023/11/21 08:20:22;;;;;;;6.32;3.08;;;;;;;15.82;100.00;97795.94;6280033;22;20051;-93
2023/11/21 08:22:53;;;;;;;5.80;2.65;;;;;;;16.11;100.00;97825.41;6280035;22;20019;-94
2023/11/21 08:25:30;;;;;;;4.90;3.58;;;;;;;16.13;100.00;97822.59;6280572;22;20389;-93
2023/11/21 08:27:59;;;;;;;9.05;4.18;;;;;;;15.64;100.00;97732.78;6280288;22;20357;-93
2023/11/21 08:30:29;;;;;;;7.30;2.80;;;;;;;15.86;100.00;97771.63;6280009;22;20025;-95
2023/11/21 08:32:58;;;;;;;6.18;2.97;;;;;;;15.38;100.00;97692.44;6282707;22;20097;-94
2023/11/21 08:35:26;;;;;;;7.95;2.80;;;;;;;15.53;100.00;97708.50;6282239;22;20118;-93
2023/11/21 08:38:01;;;;;;;8.55;3.08;;;;;;;15.56;100.00;97711.81;6282431;22;20026;-94
2023/11/21 08:40:32;;;;;;;4.90;2.92;;;;;;;16.10;100.00;97779.91;6282159;22;20019;-93
2023/11/21 08:42:59;;;;;;;4.28;2.60;;;;;;;15.57;100.00;97673.34;6282540;22;20019;-95
2023/11/21 08:45:35;;;;;;;5.50;2.33;;;;;;;16.18;100.00;97766.84;6281406;22;20015;-95
2023/11/21 08:48:04;;;;;;;7.30;3.92;;;;;;;15.92;100.00;97718.47;6282247;22;20365;-93
2023/11/21 08:50:30;;;;;;;5.93;3.30;;;;;;;16.05;100.00;97707.81;6282282;22;20045;-94
2023/11/21 08:53:00;;;;;;;6.10;3.17;;;;;;;15.71;100.00;97650.16;6282239;22;20026;-95
2023/11/21 08:55:30;;;;;;;6.60;3.72;;;;;;;16.22;100.00;97733.47;6282720;22;20315;-93
2023/11/21 08:58:03;;;;;;;10.93;5.85;;;;;;;16.33;100.00;97739.00;6282154;22;20322;-94
2023/11/21 09:00:36;;;;;;;12.45;6.03;;;;;;;15.91;100.00;97664.94;6282030;22;20345;-94
2023/11/21 09:03:08;;;;;;;11.43;4.60;;;;;;;15.73;100.00;97650.94;6282327;22;20019;-93
2023/11/21 09:05:46;;;;;;;12.90;3.97;;;;;;;16.10;100.00;97705.66;6282081;22;20019;-93
2023/11/21 09:08:12;;;;;;;12.25;5.82;;;;;;;15.57;100.00;97657.28;6282093;22;20353;-94
2023/11/21 09:10:59;;;;;;;8.38;4.95;;;;;;;15.99;100.00;97725.13;6282326;22;20353;-93
2023/11/21 09:13:29;;;;;;;11.15;4.32;;;;;;;15.93;100.00;97701.41;6282351;22;20019;-94
2023/11/21 09:16:05;;;;;;;8.68;4.60;;;;;;;16.36;100.00;97772.81;6281292;22;20022;-95
2023/11/21 09:18:31;;;;;;;;;;;;;;;16.50;100.00;97804.09;6282321;22;20019;-93
2023/11/21 09:21:00;;;;;;;11.85;6.97;;;;;;;16.70;100.00;97806.31;6282312;22;19925;-94
2023/11/21 09:23:26;;;;;;;10.93;4.47;;;;;;;16.01;100.00;97663.38;6281916;22;20015;-95
2023/11/21 09:25:59;;;;;;;11.35;3.90;;;;;;;16.59;100.00;97769.44;6277113;22;20020;-94
2023/11/21 09:28:27;;;;;;;8.07;3.17;;;;;;;16.26;100.00;97691.22;6276907;22;20055;-94
2023/11/21 09:30:54;;;;;;;6.15;2.72;;;;;;;15.79;100.00;97640.66;6281010;22;20082;-93
2023/11/21 09:33:22;;;;;;;7.38;3.22;;;;;;;15.90;100.00;97663.25;6281730;22;20023;-94
2023/11/21 09:35:49;;;;;;;7.72;3.10;;;;;;;16.45;100.00;97756.09;6282002;22;20019;-94
2023/11/21 09:38:15;;;;;;;15.07;3.22;;;;;;;16.00;100.00;97648.22;6282106;22;20019;-94
2023/11/21 09:40:46;;;;;;;4.97;2.97;;;;;;;16.23;100.00;97682.41;6281907;22;20102;-94
2023/11/21 09:43:28;;;;;;;5.10;2.80;;;;;;;16.68;100.00;97716.97;6282452;22;20433;-94
2023/11/21 09:46:00;;;;;;;8.45;3.65;;;;;;;16.18;100.00;97633.59;6281830;22;20517;-95
2023/11/21 09:48:26;;;;;;;11.70;4.55;;;;;;;16.60;100.00;97685.28;6281957;22;20023;-95
2023/11/21 09:50:55;;;;;;;7.15;3.92;;;;;;;16.80;100.00;97707.22;6282494;22;20110;-95
2023/11/21 09:53:23;;;;;;;6.70;4.30;;;;;;;17.04;100.00;97740.44;6281996;22;20019;-95
2023/11/21 09:55:53;;;;;;;7.03;4.30;;;;;;;16.30;100.00;97617.63;6282630;22;20093;-96
2023/11/21 09:58:22;;;;;;;7.03;3.67;;;;;;;16.39;100.00;97649.19;6282450;22;20051;-95
2023/11/21 10:00:49;;;;;;;9.45;3.22;;;;;;;15.92;100.00;97591.59;6280327;22;20023;-94
2023/11/21 10:03:15;;;;;;;4.53;2.10;;;;;;;16.57;100.00;97688.19;6282553;22;20074;-95
2023/11/21 10:05:46;;;;;;;3.95;2.15;;;;;;;16.20;100.00;97637.03;6282732;22;20072;-93
2023/11/21 10:08:12;;;;;;;4.22;2.22;;;;;;;16.29;100.00;97648.09;6282668;22;20114;-95
2023/11/21 10:10:44;;;;;;;5.85;2.55;;;;;;;15.91;100.00;97581.84;6283007;22;20019;-95
2023/11/21 10:13:12;;;;;;;6.32;3.30;;;;;;;16.46;100.00;97665.72;6285298;22;20019;-95
2023/11/21 10:15:51;;;;;;;7.03;3.08;;;;;;;16.54;100.00;97700.94;6285890;22;20022;-95
2023/11/21 10:18:25;;;;;;;5.18;3.25;;;;;;;16.45;100.00;97664.00;6284732;22;20026;-94
2023/11/21 10:20:55;;;;;;;4.70;3.05;;;;;;;15.90;100.00;97572.94;6280609;22;20015;-94
2023/11/21 10:23:22;;;;;;;5.65;2.80;;;;;;;16.51;100.00;97651.03;6282116;22;20019;-95
2023/11/21 10:25:52;;;;;;;11.45;4.82;;;;;;;16.00;100.00;97557.06;6281605;22;20068;-95
2023/11/21 10:28:25;;;;;;;9.90;5.15;;;;;;;16.93;100.00;97685.75;6281876;22;20076;-94
2023/11/21 10:31:03;;;;;;;7.93;5.18;;;;;;;16.95;100.00;97646.22;6282244;22;20030;-95
2023/11/21 10:33:42;;;;;;;10.00;5.22;;;;;;;16.68;100.00;97555.06;6283650;22;20019;-94
2023/11/21 10:36:28;;;;;;;13.90;6.45;;;;;;;17.36;100.00;97602.94;6282552;22;20019;-96
2023/11/21 10:38:54;;;;;;;13.88;5.90;;;;;;;17.80;100.00;97652.56;6286876;22;20011;-96
2023/11/21 10:41:41;;;;;;;7.82;3.25;;;;;;;17.31;100.00;97529.03;6288015;22;20030;-95
2023/11/21 10:44:14;;;;;;;7.57;3.33;;;;;;;17.36;100.00;97530.38;6288257;22;20015;-95
2023/11/21 10:47:37;;;;;;;9.70;3.50;;;;;;;18.11;100.00;97614.44;6222465;23;20024;-95
2023/11/21 11:00:43;;;;;;;10.18;3.60;;;;;;;17.53;100.00;97490.66;6194969;23;20102;-95
2023/11/21 11:03:27;;;;;;;9.50;3.60;;;;;;;17.66;100.00;97488.72;6231977;23;20027;-94
2023/11/21 11:06:17;;;;;;;7.45;3.20;;;;;;;17.70;100.00;97487.53;6231586;23;20020;-95
2023/11/21 11:09:26;;;;;;;;;;;;;;;;;;;;;
2023/11/21 11:12:19;;;;;;;;;;;;;;;;;;;;;
2023/11/21 11:15:09;;;;;;;5.25;2.15;;;;;;;19.04;100.00;97622.47;6198263;23;20017;-96
2023/11/21 11:17:40;;;;;;;6.22;2.15;;;;;;;18.43;100.00;97515.06;6201611;23;20024;-96
2023/11/21 11:20:51;;;;;;;4.53;2.10;;;;;;;18.35;100.00;97491.47;6107428;23;20022;-95
2023/11/21 11:23:39;;;;;;;2.80;1.50;;;;;;;18.95;100.00;97591.75;6104106;23;20021;-95
2023/11/21 11:26:12;;;;;;;;;;;;;;;19.09;100.00;97615.75;6201705;23;20016;-96
2023/11/21 11:28:52;;;;;;;7.75;2.13;;;;;;;18.37;100.00;97494.91;6202127;23;19911;-95
2023/11/21 11:31:58;;;;;;;3.35;1.77;;;;;;;18.78;100.00;97589.53;6264511;22;20020;-96
2023/11/21 11:34:32;;;;;;;4.35;1.30;;;;;;;18.25;100.00;97499.41;6264605;22;20418;-95
2023/11/21 11:37:09;;;;;;;5.18;1.75;;;;;;;17.86;100.00;97461.19;6264257;22;20019;-95
2023/11/21 11:39:54;;;;;;;6.05;1.70;;;;;;;18.26;100.00;97524.50;6264211;22;20020;-95
2023/11/21 11:43:07;;;;;;;11.95;4.43;;;;;;;17.94;100.00;97467.81;6267655;22;20028;-96
2023/11/21 11:45:43;;;;;;;20.60;7.32;;;;;;;17.80;100.00;97474.22;6264267;22;20011;-94
2023/11/21 11:48:23;;;;;;;9.25;4.47;;;;;;;18.41;100.00;97585.19;6264531;22;20036;-95
2023/11/21 11:51:24;;;;;;;10.23;3.38;;;;;;;17.72;100.00;97469.44;6265102;22;20020;-95
2023/11/21 12:05:57;;;;;;;5.88;3.47;;;;;;;17.80;100.00;97434.78;5933851;24;20024;-95
2023/11/21 12:08:30;;;;;;;9.10;3.17;;;;;;;18.72;100.00;97550.47;5859456;24;20033;-95
2023/11/21 12:14:36;;;;;;;9.95;5.10;;;;;;;18.03;100.00;97432.97;5881987;24;20026;-96
2023/11/21 12:17:04;;;;;;;8.27;4.00;;;;;;;18.42;100.00;97483.75;5860194;24;20052;-96
2023/11/21 12:19:30;;;;;;;7.90;3.03;;;;;;;18.48;100.00;97483.28;5859213;24;20025;-95
2023/11/21 12:22:00;;;;;;;5.38;3.30;;;;;;;18.19;100.00;97426.38;5880347;24;20092;-94
2023/11/21 12:24:34;;;;;;;6.85;3.03;;;;;;;18.13;100.00;97413.41;5929600;24;20035;-94
2023/11/21 12:27:04;;;;;;;6.70;3.20;;;;;;;18.27;100.00;97443.63;5905419;24;20028;-95
2023/11/21 12:29:38;;;;;;;7.25;2.53;;;;;;;18.44;100.00;97476.44;5962436;24;20204;-96
2023/11/21 12:32:07;;;;;;;6.22;3.00;;;;;;;18.02;100.00;97419.63;5964219;24;20025;-95
2023/11/21 12:34:38;;;;;;;;;;;;;;;18.75;100.00;97544.81;6004247;23;20019;-96
2023/11/21 12:37:18;;;;;;;6.85;2.38;;;;;;;18.05;100.00;97430.19;6053979;23;19916;-94
2023/11/21 12:39:50;;;;;;;5.05;1.75;;;;;;;17.47;100.00;97413.16;6111001;23;20025;-95
2023/11/21 12:42:20;;;;;;;5.93;2.30;;;;;;;17.50;100.00;97404.84;6113552;23;20025;-96
2023/11/21 12:44:48;;;;;;;6.07;3.63;;;;;;;17.58;100.00;97405.13;6109826;23;20023;-95
2023/11/21 12:47:31;;;;;;;9.20;3.60;;;;;;;18.34;100.00;97527.41;6108096;23;20122;-95
2023/11/21 12:50:01;;;;;;;10.73;4.07;;;;;;;17.53;100.00;97400.13;6051628;23;20043;-94
2023/11/21 12:52:48;;;;;;;11.30;4.10;;;;;;;17.40;100.00;97389.44;6029098;23;20027;-95
2023/11/21 12:55:29;;;;;;;10.38;3.67;;;;;;;17.50;100.00;97392.31;6075111;23;20019;-96
2023/11/21 13:11:49;;;;;;;6.13;2.58;;;;;;;17.48;100.00;97366.50;5928686;24;20085;-95
2023/11/21 13:14:31;;;;;;;8.73;3.92;;;;;;;17.50;100.00;97367.22;5912608;24;20084;-93
2023/11/21 13:17:04;;;;;;;10.45;4.45;;;;;;;17.36;100.00;97366.47;5914853;24;20021;-96
2023/11/21 13:24:00;;;;;;;6.65;3.42;;;;;;;17.09;100.00;97347.97;5935485;24;20073;-95
2023/11/21 13:27:51;;;;;;;8.88;4.20;;;;;;;17.12;100.00;97365.69;5985782;24;20020;-96
2023/11/21 13:30:57;;;;;;;19.83;10.15;;;;;;;16.87;100.00;97345.19;5915846;24;20061;-95
2023/11/21 13:41:17;;;;;;;5.53;2.67;;;;;;;16.93;100.00;97380.47;5854113;24;20494;-95
2023/11/21 13:44:26;;;;;;;3.28;1.70;;;;;;;16.99;100.00;97409.56;5823352;24;20110;-94
2023/11/21 13:47:18;;;;;;;3.65;1.92;;;;;;;16.72;100.00;97427.69;5814330;24;20022;-96
2023/11/21 13:53:17;;;;;;;6.93;1.98;;;;;;;15.84;100.00;97425.91;5910039;24;20086;-94
2023/11/21 13:56:23;;;;;;;;;;;;;;;;;;;;;
2023/11/21 14:02:19;;;;;;;5.20;2.15;;;;;;;15.94;100.00;97458.28;5880173;24;20046;-96
2023/11/21 14:08:27;;;;;;;;;;;;;;;;;;;;;
2023/11/21 14:11:32;;;;;;;5.53;3.53;;;;;;;15.95;100.00;97371.53;5989569;24;20039;-95
2023/11/21 14:14:41;;;;;;;7.72;3.22;;;;;;;15.59;100.00;97316.84;5964572;24;20049;-94
2023/11/21 14:17:44;;;;;;;;;;;;;;;;;;;;;
2023/11/21 14:20:54;;;;;;;12.00;4.07;;;;;;;15.67;100.00;97321.69;5975099;24;20020;-95
2023/11/21 14:23:27;;;;;;;7.03;3.92;;;;;;;16.42;100.00;97450.44;5981766;24;20051;-95
2023/11/21 14:26:04;;;;;;;7.40;3.70;;;;;;;15.98;100.00;97369.50;5960193;24;20051;-96
2023/11/21 14:32:17;;;;;;;7.50;3.47;;;;;;;15.52;100.00;97289.63;5965233;23;20027;-95
2023/11/21 14:35:46;;;;;;;7.75;3.60;;;;;;;15.55;100.00;97315.38;6010696;23;20157;-94
2023/11/21 14:38:49;;;;;;;;;;;;;;;;;;;;;
2023/11/21 14:41:38;;;;;;;7.95;3.33;;;;;;;15.63;100.00;97313.00;5822902;24;20033;-95
2023/11/21 14:45:03;;;;;;;10.82;3.85;;;;;;;16.01;100.00;97369.28;5805976;24;20060;-96
2023/11/21 14:52:22;;;;;;;11.32;4.40;;;;;;;15.89;100.00;97358.56;5125757;27;20881;-94
2023/11/21 14:54:56;;;;;;;;;;;;;;;;;;;;;
2023/11/21 15:22:41;;;;;;;5.82;2.65;;;;;;;15.10;100.00;97325.66;4866700;29;20030;-94
2023/11/21 15:28:28;;;;;;;8.13;2.33;;;;;;;15.21;100.00;97341.81;4819806;29;20046;-94
2023/11/21 15:30:54;;;;;;;6.68;2.80;;;;;;;14.63;100.00;97302.94;4834735;29;20049;-94
2023/11/21 15:33:30;;;;;;;7.10;4.13;;;;;;;14.91;100.00;97320.69;4834508;29;20489;-94
2023/11/21 15:36:20;;;;;;;7.45;3.00;;;;;;;15.13;100.00;97355.72;4871425;29;20052;-93
2023/11/21 15:39:23;;;;;;;;;;;;;;;;;;;;;
2023/11/21 15:42:14;;;;;;;4.55;2.33;;;;;;;14.47;100.00;97289.72;4899446;29;20119;-92
2023/11/21 15:44:52;;;;;;;4.82;2.70;;;;;;;14.86;100.00;97395.94;4959695;28;20121;-93
2023/11/21 15:47:21;;;;;;;8.93;3.70;;;;;;;14.30;100.00;97326.44;4949355;28;20103;-95
2023/11/21 15:50:08;;;;;;;5.55;2.42;;;;;;;14.60;100.00;97304.03;5034839;28;20049;-95
2023/11/21 15:52:54;;;;;;;5.22;2.92;;;;;;;14.02;100.00;97330.03;5098356;28;20548;-93
2023/11/21 15:55:25;;;;;;;6.03;2.40;;;;;;;14.48;100.00;97396.59;5105900;28;20131;-94
2023/11/21 15:57:54;;;;;;;9.45;2.50;;;;;;;13.72;100.00;97301.63;5096920;28;20109;-93
2023/11/21 16:00:25;;;;;;;4.45;1.90;;;;;;;14.74;100.00;97432.38;5093603;28;20041;-93
2023/11/21 16:02:55;;;;;;;8.52;2.47;;;;;;;14.00;100.00;97307.91;5087983;28;20398;-92
2023/11/21 16:05:28;;;;;;;3.25;1.70;;;;;;;14.56;100.00;97378.25;5082924;28;20052;-95
2023/11/21 16:08:03;;;;;;;3.85;1.95;;;;;;;13.90;100.00;97333.47;5098101;28;20044;-95
2023/11/21 16:10:35;;;;;;;5.53;1.80;;;;;;;13.79;100.00;97362.69;5087023;28;20032;-93
2023/11/21 16:13:08;;;;;;;6.70;2.70;;;;;;;13.54;100.00;97393.59;5078847;28;20135;-95
2023/11/21 16:15:39;;;;;;;6.53;2.60;;;;;;;14.02;100.00;97446.78;5083745;28;20108;-93
2023/11/21 16:18:13;;;;;;;4.28;1.67;;;;;;;13.16;100.00;97305.97;5087041;28;20048;-94
2023/11/21 16:20:41;;;;;;;4.82;1.42;;;;;;;12.74;100.00;97299.63;5082356;28;20105;-94
2023/11/21 16:23:12;;;;;;;3.03;1.25;;;;;;;13.10;100.00;97427.34;5078716;28;20047;-94
2023/11/21 16:25:38;;;;;;;3.05;1.20;;;;;;;12.97;100.00;97428.13;5077577;28;20044;-94
2023/11/21 16:28:05;;;;;;;6.95;2.28;;;;;;;12.02;100.00;97294.00;5080794;28;20033;-93
2023/11/21 16:30:33;;;;;;;2.90;1.30;;;;;;;13.17;100.00;97470.53;5075113;28;20029;-95
2023/11/21 16:33:03;;;;;;;2.47;1.02;;;;;;;13.20;100.00;97450.81;5079377;28;20048;-95
2023/11/21 16:35:32;;;;;;;2.40;0.60;;;;;;;12.53;100.00;97334.63;5083963;28;20127;-94
2023/11/21 16:37:59;;;;;;;1.60;0.52;;;;;;;12.86;100.00;97383.38;5078625;28;20398;-94
2023/11/21 16:40:29;;;;;;;;;;;;;;;13.48;100.00;97477.63;5077613;28;20068;-93
2023/11/21 16:43:08;;;;;;;2.65;0.88;;;;;;;13.41;100.00;97475.41;5083602;28;19991;-96
2023/11/21 16:45:37;;;;;;;1.52;0.82;;;;;;;12.43;100.00;97341.41;5082029;28;20053;-95
2023/11/21 16:48:12;;;;;;;0.52;0.45;;;;;;;12.61;100.00;97335.97;5092902;28;20070;-95
2023/11/21 16:50:50;;;;;;;1.40;0.68;;;;;;;12.79;100.00;97337.53;5083210;28;20051;-94
2023/11/21 16:53:39;;;;;;;1.25;0.50;;;;;;;13.75;100.00;97517.84;5079831;28;20041;-95
2023/11/21 16:56:36;;;;;;;4.53;2.25;;;;;;;13.02;100.00;97410.06;5083479;28;20135;-93
2023/11/21 16:59:35;;;;;;;1.45;0.60;;;;;;;13.15;100.00;97389.69;5079753;28;20064;-95
2023/11/21 17:20:43;;;;;;;2.05;0.70;;;;;;;12.22;100.00;97438.56;4972471;28;20535;-93
2023/11/21 17:23:24;;;;;;;1.08;0.30;;;;;;;12.33;100.00;97406.84;5000191;28;20153;-93
2023/11/21 17:26:04;;;;;;;2.80;0.40;;;;;;;11.87;100.00;97414.69;4994296;28;20046;-91
2023/11/21 17:28:31;;;;;;;0.73;0.40;;;;;;;12.02;100.00;97503.63;4991509;28;20061;-92
2023/11/21 17:30:57;;;;;;;2.30;0.30;;;;;;;11.34;100.00;97407.72;4981571;28;20540;-92
2023/11/21 17:33:36;;;;;;;2.40;0.45;;;;;;;11.48;100.00;97415.88;4983515;28;20129;-88
2023/11/21 17:36:13;;;;;;;0.98;0.40;;;;;;;12.06;100.00;97546.00;4978400;28;20043;-90
2023/11/21 17:38:41;;;;;;;2.17;1.20;;;;;;;11.31;100.00;97401.63;4981262;28;20049;-92
2023/11/21 17:41:10;;;;;;;1.67;0.80;;;;;;;12.06;100.00;97538.00;4984250;28;20133;-95
2023/11/21 17:43:40;;;;;;;0.40;0.30;;;;;;;12.26;100.00;97504.09;4986034;28;20050;-93
2023/11/21 17:46:20;;;;;;;0.70;0.30;;;;;;;12.22;100.00;97484.75;4993294;28;20069;-94
2023/11/21 17:48:47;;;;;;;0.93;0.50;;;;;;;11.44;100.00;97406.31;5044888;28;20098;-91
2023/11/21 17:51:17;;;;;;;1.33;0.22;;;;;;;12.37;100.00;97538.19;5061026;28;20036;-91
2023/11/21 17:53:43;;;;;;;0.77;0.28;;;;;;;11.78;100.00;97450.66;5055325;28;20051;-92
2023/11/21 17:56:13;;;;;;;0.50;0.40;;;;;;;11.56;100.00;97396.81;5058123;28;20167;-92
2023/11/21 17:58:41;;;;;;;0.47;0.20;;;;;;;12.47;100.00;97536.72;5057180;28;20079;-93
2023/11/21 18:01:08;;;;;;;5.93;3.28;;;;;;;12.23;100.00;97546.91;5056486;28;20101;-93
2023/11/21 18:03:34;;;;;;;1.02;0.40;;;;;;;12.56;100.00;97554.03;5055671;28;20509;-93
2023/11/21 18:06:00;;;;;;;1.02;0.60;;;;;;;11.75;100.00;97410.84;5056661;28;20044;-93
2023/11/21 18:08:27;;;;;;;0.20;0.20;;;;;;;12.77;100.00;97581.31;5056593;28;20105;-94
2023/11/21 18:10:53;;;;;;;0.10;0.10;;;;;;;12.62;100.00;97575.03;5057212;28;20071;-94
2023/11/21 18:13:19;;;;;;;0.30;0.20;;;;;;;12.15;100.00;97514.50;5056761;28;20064;-92
2023/11/21 18:15:45;;;;;;;0.55;0.20;;;;;;;11.45;100.00;97424.00;5047697;28;20044;-93
2023/11/21 18:18:11;;;;;;;0.95;0.35;;;;;;;12.37;100.00;97560.34;5056485;28;20044;-91
2023/11/21 18:20:37;;;;;;;0.20;0.10;;;;;;;11.34;100.00;97397.94;5055776;28;20143;-89
2023/11/21 18:23:03;;;;;;;1.45;0.20;;;;;;;11.17;100.00;97372.22;5056766;28;20036;-91
2023/11/21 18:25:30;;;;;;;0.30;0.30;;;;;;;11.71;100.00;97451.94;5054703;28;20091;-91
2023/11/21 18:27:56;;;;;;;0.65;0.40;;;;;;;11.93;100.00;97512.97;5054564;28;20033;-90
2023/11/21 18:30:22;;;;;;;1.38;0.88;;;;;;;11.02;100.00;97384.50;5055667;28;20539;-90
2023/11/21 18:32:58;;;;;;;0.98;0.40;;;;;;;11.18;100.00;97400.53;5055078;28;20110;-93
2023/11/21 18:35:24;;;;;;;1.98;0.40;;;;;;;12.13;100.00;97550.06;5053527;28;20041;-93
2023/11/21 18:37:50;;;;;;;1.23;0.45;;;;;;;11.48;100.00;97451.31;5053606;28;20441;-93
2023/11/21 18:40:17;;;;;;;1.67;0.70;;;;;;;11.06;100.00;97393.19;5052864;28;20064;-92
2023/11/21 18:42:47;;;;;;;1.80;0.52;;;;;;;11.61;100.00;97440.91;5054620;28;20094;-93
2023/11/21 18:45:39;;;;;;;2.42;0.55;;;;;;;10.95;100.00;97340.56;5054520;28;20047;-92
2023/11/21 18:48:10;;;;;;;1.05;0.70;;;;;;;11.17;100.00;97372.22;5054561;28;20041;-91
2023/11/21 18:50:42;;;;;;;1.67;0.60;;;;;;;11.36;100.00;97480.38;5054642;28;20055;-89
2023/11/21 18:53:08;;;;;;;1.83;0.40;;;;;;;11.71;100.00;97531.84;5066639;28;20123;-92
2023/11/21 18:55:35;;;;;;;2.03;0.50;;;;;;;11.55;100.00;97477.63;5057811;28;20040;-90
2023/11/21 18:58:56;;;;;;;1.35;0.50;;;;;;;11.00;100.00;97382.88;5049961;28;20421;-92
2023/11/21 19:04:42;;;;;;;3.65;0.60;;;;;;;11.71;100.00;97475.91;5054397;28;20047;-92
2023/11/21 19:07:09;;;;;;;1.27;0.60;;;;;;;11.06;100.00;97425.97;5051971;28;20037;-92
2023/11/21 19:09:35;;;;;;;2.80;0.60;;;;;;;11.37;100.00;97404.91;5053292;28;20036;-92
2023/11/21 19:12:02;;;;;;;2.22;0.60;;;;;;;12.10;100.00;97499.59;5053618;28;20052;-92
2023/11/21 19:14:29;;;;;;;1.58;0.57;;;;;;;11.97;100.00;97506.53;5055705;28;20045;-92
2023/11/21 19:16:56;;;;;;;1.83;0.90;;;;;;;11.82;100.00;97428.25;5049629;28;20033;-90
2023/11/21 19:19:21;;;;;;;0.52;0.38;;;;;;;12.15;100.00;97514.50;5050708;28;20056;-91